Time;durP1;ratioP1;P1;durP2;ratioP2;P2;SDS_P1;SDS_P2;PMS_P1;PMS_P2;Temp;Humidity;BMP_temperature;BMP_pressure;BME280_temperature;BME280_humidity;BME280_pressure;Samples;Min_cycle;Max_cycle;Signal;HPM_P1;HPM_P2
2022/06/24 00:00:39;;;;;;;6.63;3.15;;;;;;;;;;5058556;28;20036;-76
2022/06/24 00:03:06;;;;;;;5.72;2.80;;;;;;;;;;5055917;28;20017;-76
2022/06/24 00:05:34;;;;;;;3.90;3.15;;;;;;;;;;5056126;28;20092;-76
2022/06/24 00:08:00;;;;;;;4.18;2.65;;;;;;;;;;5053802;28;20081;-76
2022/06/24 00:10:34;;;;;;;4.45;2.92;;;;;;;;;;5068006;28;20073;-77
2022/06/24 00:13:00;;;;;;;5.03;3.15;;;;;;;;;;5068488;28;20020;-77
2022/06/24 00:15:27;;;;;;;3.30;2.85;;;;;;;;;;5056304;28;20281;-77
2022/06/24 00:17:53;;;;;;;3.22;2.70;;;;;;;;;;5063942;28;20142;-77
2022/06/24 00:20:20;;;;;;;3.13;2.60;;;;;;;;;;5057428;28;20028;-76
2022/06/24 00:22:48;;;;;;;4.80;2.92;;;;;;;;;;5060597;28;20500;-77
2022/06/24 00:25:14;;;;;;;3.88;2.95;;;;;;;;;;5056946;28;20506;-77
2022/06/24 00:27:41;;;;;;;4.43;2.60;;;;;;;;;;5061923;28;20072;-77
2022/06/24 00:30:09;;;;;;;6.07;2.83;;;;;;;;;;5055481;28;20513;-76
2022/06/24 00:32:35;;;;;;;3.30;2.80;;;;;;;;;;5065008;28;20032;-75
2022/06/24 00:35:03;;;;;;;4.00;2.50;;;;;;;;;;5054192;28;20115;-75
2022/06/24 00:37:29;;;;;;;2.70;2.30;;;;;;;;;;5065357;28;20513;-77
2022/06/24 00:39:57;;;;;;;5.90;2.70;;;;;;;;;;5056884;28;20517;-76
2022/06/24 00:42:23;;;;;;;4.05;2.90;;;;;;;;;;5054243;28;20546;-77
2022/06/24 00:44:51;;;;;;;3.10;2.60;;;;;;;;;;5053807;28;20032;-76
2022/06/24 00:47:18;;;;;;;2.92;2.50;;;;;;;;;;5048877;28;20376;-77
2022/06/24 00:49:46;;;;;;;4.00;2.60;;;;;;;;;;5063292;28;20017;-78
2022/06/24 00:52:12;;;;;;;3.88;2.50;;;;;;;;;;5056780;28;20428;-76
2022/06/24 00:54:39;;;;;;;4.63;2.72;;;;;;;;;;5061334;28;20035;-79
2022/06/24 00:57:05;;;;;;;4.20;2.70;;;;;;;;;;5058921;28;20079;-75
2022/06/24 00:59:35;;;;;;;2.85;2.50;;;;;;;;;;5048035;28;20036;-76
2022/06/24 01:02:05;;;;;;;3.95;2.75;;;;;;;;;;5061841;28;20143;-77
2022/06/24 01:04:32;;;;;;;4.93;2.80;;;;;;;;;;5049381;28;20044;-76
2022/06/24 01:06:58;;;;;;;2.88;2.50;;;;;;;;;;5048295;28;20091;-76
2022/06/24 01:09:24;;;;;;;5.20;2.83;;;;;;;;;;5064173;28;20112;-77
2022/06/24 01:11:51;;;;;;;6.93;2.63;;;;;;;;;;5050730;28;20023;-77
2022/06/24 01:14:17;;;;;;;3.33;2.28;;;;;;;;;;5053177;28;20029;-76
2022/06/24 01:16:43;;;;;;;4.25;3.03;;;;;;;;;;5056621;28;20025;-76
2022/06/24 01:19:11;;;;;;;3.00;2.70;;;;;;;;;;5055182;28;20057;-75
2022/06/24 01:21:41;;;;;;;3.00;2.70;;;;;;;;;;5057040;28;20053;-76
2022/06/24 01:24:09;;;;;;;3.65;2.72;;;;;;;;;;5057697;28;20024;-76
2022/06/24 01:26:39;;;;;;;3.78;2.60;;;;;;;;;;5053162;28;20029;-76
2022/06/24 01:29:06;;;;;;;5.20;2.88;;;;;;;;;;5056719;28;20425;-75
2022/06/24 01:31:32;;;;;;;5.50;2.60;;;;;;;;;;5054690;28;20017;-75
2022/06/24 01:33:59;;;;;;;4.10;2.88;;;;;;;;;;5059452;28;20521;-76
2022/06/24 01:36:25;;;;;;;3.65;2.78;;;;;;;;;;5059036;28;20537;-76
2022/06/24 01:38:51;;;;;;;3.47;2.88;;;;;;;;;;5059284;28;20032;-76
2022/06/24 01:41:17;;;;;;;3.45;2.50;;;;;;;;;;5062213;28;20032;-76
2022/06/24 01:43:43;;;;;;;6.40;2.67;;;;;;;;;;5062467;28;20028;-76
2022/06/24 01:46:11;;;;;;;2.83;2.42;;;;;;;;;;5058983;28;20056;-76
2022/06/24 01:48:38;;;;;;;3.05;2.75;;;;;;;;;;5065283;28;20216;-76
2022/06/24 01:51:04;;;;;;;2.80;2.50;;;;;;;;;;5063079;28;20024;-77
2022/06/24 01:53:30;;;;;;;3.20;2.60;;;;;;;;;;5061083;28;20111;-77
2022/06/24 01:55:56;;;;;;;2.70;2.40;;;;;;;;;;5051282;28;20410;-77
2022/06/24 01:58:23;;;;;;;4.28;2.97;;;;;;;;;;5062163;28;20112;-77
2022/06/24 02:00:50;;;;;;;4.35;2.55;;;;;;;;;;5059975;28;20029;-76
2022/06/24 02:03:16;;;;;;;3.45;2.88;;;;;;;;;;5057926;28;20020;-76
2022/06/24 02:05:42;;;;;;;4.05;3.00;;;;;;;;;;5058183;28;20037;-76
2022/06/24 02:08:08;;;;;;;3.70;2.90;;;;;;;;;;5059967;28;20036;-76
2022/06/24 02:13:27;;;;;;;3.20;2.90;;;;;;;;;;5051482;28;20083;-78
2022/06/24 02:15:56;;;;;;;4.20;3.22;;;;;;;;;;5061953;28;20025;-77
2022/06/24 02:18:23;;;;;;;3.60;2.92;;;;;;;;;;5055925;28;20244;-77
2022/06/24 02:20:50;;;;;;;3.40;3.10;;;;;;;;;;5051396;28;20029;-77
2022/06/24 02:23:16;;;;;;;4.50;3.45;;;;;;;;;;5057224;28;20064;-77
2022/06/24 02:25:42;;;;;;;4.03;3.63;;;;;;;;;;5063741;28;20087;-77
2022/06/24 02:28:09;;;;;;;6.03;3.00;;;;;;;;;;5064625;28;20305;-77
2022/06/24 02:30:35;;;;;;;3.35;2.92;;;;;;;;;;5054311;28;20439;-77
2022/06/24 02:33:01;;;;;;;4.03;3.42;;;;;;;;;;5063093;28;20024;-77
2022/06/24 02:35:27;;;;;;;5.80;3.50;;;;;;;;;;5068421;28;20080;-79
2022/06/24 02:37:53;;;;;;;4.22;3.17;;;;;;;;;;5067001;28;20051;-77
2022/06/24 02:43:11;;;;;;;4.30;3.28;;;;;;;;;;5065677;28;20555;-77
2022/06/24 02:45:37;;;;;;;5.40;3.40;;;;;;;;;;5068580;28;20029;-79
2022/06/24 02:48:03;;;;;;;5.18;3.30;;;;;;;;;;5063925;28;20024;-77
2022/06/24 02:50:29;;;;;;;5.82;3.13;;;;;;;;;;5065102;28;20032;-78
2022/06/24 02:52:55;;;;;;;5.05;3.38;;;;;;;;;;5057055;28;20017;-77
2022/06/24 02:55:21;;;;;;;4.80;3.45;;;;;;;;;;5056793;28;20028;-77
2022/06/24 02:57:48;;;;;;;4.43;3.10;;;;;;;;;;5060446;28;20052;-77
2022/06/24 03:00:14;;;;;;;2.95;2.65;;;;;;;;;;5054842;28;20032;-77
2022/06/24 03:02:40;;;;;;;4.88;3.42;;;;;;;;;;5058113;28;20375;-77
2022/06/24 03:05:06;;;;;;;4.40;3.65;;;;;;;;;;5052492;28;20032;-77
2022/06/24 03:07:32;;;;;;;4.97;3.47;;;;;;;;;;5060357;28;20427;-78
2022/06/24 03:09:58;;;;;;;3.90;3.60;;;;;;;;;;5062537;28;20449;-77
2022/06/24 03:12:24;;;;;;;3.72;3.28;;;;;;;;;;5065223;28;20489;-76
2022/06/24 03:14:51;;;;;;;5.13;3.00;;;;;;;;;;5065444;28;20115;-76
2022/06/24 03:17:17;;;;;;;4.82;3.05;;;;;;;;;;5064780;28;20467;-77
2022/06/24 03:19:43;;;;;;;5.22;3.20;;;;;;;;;;5059076;28;20642;-77
2022/06/24 03:22:09;;;;;;;5.13;3.33;;;;;;;;;;5064018;28;20066;-78
2022/06/24 03:24:35;;;;;;;5.68;3.38;;;;;;;;;;5058586;28;20063;-77
2022/06/24 03:27:01;;;;;;;4.57;3.00;;;;;;;;;;5062818;28;20017;-76
2022/06/24 03:29:27;;;;;;;3.85;3.10;;;;;;;;;;5058943;28;20547;-78
2022/06/24 03:31:53;;;;;;;6.43;3.33;;;;;;;;;;5057131;28;20107;-78
2022/06/24 03:34:19;;;;;;;3.92;3.15;;;;;;;;;;5071965;28;20020;-78
2022/06/24 03:36:45;;;;;;;4.10;3.28;;;;;;;;;;5062552;28;20028;-76
2022/06/24 03:39:11;;;;;;;4.72;3.88;;;;;;;;;;5058723;28;20386;-77
2022/06/24 03:41:38;;;;;;;4.95;3.60;;;;;;;;;;5062066;28;20040;-77
2022/06/24 03:44:04;;;;;;;5.68;3.70;;;;;;;;;;5063016;28;20109;-77
2022/06/24 03:46:30;;;;;;;9.98;5.07;;;;;;;;;;5062120;28;20025;-76
2022/06/24 03:48:56;;;;;;;6.28;3.70;;;;;;;;;;5057823;28;20170;-77
2022/06/24 03:51:22;;;;;;;5.95;4.38;;;;;;;;;;5057550;28;20013;-78
2022/06/24 03:53:48;;;;;;;5.43;4.18;;;;;;;;;;5056867;28;20028;-77
2022/06/24 03:56:14;;;;;;;5.32;4.75;;;;;;;;;;5061062;28;20033;-78
2022/06/24 03:58:40;;;;;;;6.70;4.80;;;;;;;;;;5056317;28;20025;-77
2022/06/24 04:01:07;;;;;;;6.60;4.90;;;;;;;;;;5063836;28;20371;-77
2022/06/24 04:03:33;;;;;;;5.20;4.70;;;;;;;;;;5062055;28;20470;-77
2022/06/24 04:05:59;;;;;;;8.73;5.03;;;;;;;;;;5060216;28;20083;-78
2022/06/24 04:08:25;;;;;;;9.38;5.30;;;;;;;;;;5065751;28;20110;-78
2022/06/24 04:10:51;;;;;;;8.23;5.28;;;;;;;;;;5061696;28;20029;-78
2022/06/24 04:13:17;;;;;;;7.78;5.43;;;;;;;;;;5060949;28;20024;-78
2022/06/24 04:15:44;;;;;;;8.63;6.47;;;;;;;;;;5054301;28;20526;-78
2022/06/24 04:18:10;;;;;;;6.95;5.38;;;;;;;;;;5055862;28;20082;-77
2022/06/24 04:20:37;;;;;;;7.88;5.65;;;;;;;;;;5062423;28;20025;-78
2022/06/24 04:23:03;;;;;;;6.90;5.70;;;;;;;;;;5015910;28;1259879;-78
2022/06/24 04:25:29;;;;;;;6.72;5.47;;;;;;;;;;5062879;28;20574;-77
2022/06/24 04:27:55;;;;;;;7.13;5.80;;;;;;;;;;5054208;28;20056;-77
2022/06/24 04:30:21;;;;;;;7.15;5.72;;;;;;;;;;5061934;28;20686;-78
2022/06/24 04:32:47;;;;;;;6.72;6.00;;;;;;;;;;5061262;28;20020;-78
2022/06/24 04:35:13;;;;;;;6.07;5.28;;;;;;;;;;5064006;28;20111;-78
2022/06/24 04:37:40;;;;;;;7.28;5.85;;;;;;;;;;5061859;28;20029;-77
2022/06/24 04:40:10;;;;;;;9.77;6.47;;;;;;;;;;5064640;28;20059;-78
2022/06/24 04:42:36;;;;;;;6.80;6.13;;;;;;;;;;5065037;28;20174;-79
2022/06/24 04:45:03;;;;;;;7.28;5.47;;;;;;;;;;5060695;28;20035;-78
2022/06/24 04:47:29;;;;;;;8.77;5.13;;;;;;;;;;5065239;28;20028;-79
2022/06/24 04:49:55;;;;;;;7.65;5.20;;;;;;;;;;5066521;28;20044;-77
2022/06/24 04:52:22;;;;;;;4.47;4.07;;;;;;;;;;5053639;28;20033;-80
2022/06/24 04:54:50;;;;;;;5.07;4.40;;;;;;;;;;5062404;28;20083;-77
2022/06/24 04:57:16;;;;;;;3.92;3.03;;;;;;;;;;5063723;28;20031;-78
2022/06/24 04:59:42;;;;;;;3.63;3.15;;;;;;;;;;5059669;28;20066;-77
2022/06/24 05:02:08;;;;;;;4.10;2.85;;;;;;;;;;5061531;28;20032;-77
2022/06/24 05:04:35;;;;;;;3.85;2.83;;;;;;;;;;5061336;28;20072;-77
2022/06/24 05:07:02;;;;;;;3.47;2.47;;;;;;;;;;5064609;28;20024;-78
2022/06/24 05:09:28;;;;;;;2.58;2.00;;;;;;;;;;5069557;28;20027;-77
2022/06/24 05:11:54;;;;;;;4.05;2.40;;;;;;;;;;5055769;28;20471;-77
2022/06/24 05:14:20;;;;;;;2.30;2.10;;;;;;;;;;5057752;28;20029;-77
2022/06/24 05:16:46;;;;;;;2.25;1.85;;;;;;;;;;5060432;28;20025;-78
2022/06/24 05:19:12;;;;;;;2.38;2.05;;;;;;;;;;5066820;28;20056;-78
2022/06/24 05:21:38;;;;;;;1.67;1.50;;;;;;;;;;5062165;28;20024;-77
2022/06/24 05:24:05;;;;;;;1.90;1.73;;;;;;;;;;5053891;28;20636;-79
2022/06/24 05:26:31;;;;;;;3.30;1.50;;;;;;;;;;5061389;28;20040;-77
2022/06/24 05:28:57;;;;;;;2.08;1.70;;;;;;;;;;5063972;28;20020;-78
2022/06/24 05:31:23;;;;;;;2.10;1.80;;;;;;;;;;5061377;28;20036;-78
2022/06/24 05:33:49;;;;;;;1.80;1.60;;;;;;;;;;5059144;28;20100;-77
2022/06/24 05:36:15;;;;;;;1.70;1.60;;;;;;;;;;5055805;28;20021;-78
2022/06/24 05:38:42;;;;;;;1.77;1.67;;;;;;;;;;5054212;28;20033;-77
2022/06/24 05:41:09;;;;;;;1.60;1.50;;;;;;;;;;5059921;28;20060;-78
2022/06/24 05:43:35;;;;;;;1.90;1.70;;;;;;;;;;5056837;28;20087;-78
2022/06/24 05:46:01;;;;;;;1.55;1.45;;;;;;;;;;5061152;28;20363;-78
2022/06/24 05:48:28;;;;;;;1.65;1.55;;;;;;;;;;5064424;28;20036;-79
2022/06/24 05:50:54;;;;;;;1.75;1.50;;;;;;;;;;5068856;28;20069;-77
2022/06/24 05:56:05;;;;;;;2.13;1.63;;;;;;;;;;5068183;28;20039;-78
2022/06/24 05:58:31;;;;;;;1.77;1.60;;;;;;;;;;5067533;28;20151;-78
2022/06/24 06:00:58;;;;;;;1.77;1.40;;;;;;;;;;5065470;28;20025;-78
2022/06/24 06:03:24;;;;;;;1.92;1.73;;;;;;;;;;5066477;28;20370;-80
2022/06/24 06:05:51;;;;;;;1.80;1.70;;;;;;;;;;5066100;28;20104;-80
2022/06/24 06:08:18;;;;;;;1.70;1.50;;;;;;;;;;5066525;28;20032;-79
2022/06/24 06:10:44;;;;;;;2.17;1.90;;;;;;;;;;5070740;28;20021;-78
2022/06/24 06:13:14;;;;;;;1.83;1.70;;;;;;;;;;5071674;28;20036;-78
2022/06/24 06:15:41;;;;;;;2.28;1.63;;;;;;;;;;5061094;28;20033;-79
2022/06/24 06:18:07;;;;;;;1.73;1.63;;;;;;;;;;5055265;28;20277;-78
2022/06/24 06:20:34;;;;;;;1.73;1.63;;;;;;;;;;5062893;28;20035;-78
2022/06/24 06:23:00;;;;;;;1.60;1.50;;;;;;;;;;5052772;28;20052;-78
2022/06/24 06:25:26;;;;;;;2.35;2.15;;;;;;;;;;5063306;28;20483;-80
2022/06/24 06:27:52;;;;;;;1.70;1.60;;;;;;;;;;5064181;28;20029;-78
2022/06/24 06:30:18;;;;;;;2.17;1.77;;;;;;;;;;5062300;28;20076;-77
2022/06/24 06:32:44;;;;;;;2.05;1.80;;;;;;;;;;5069208;28;20016;-78
2022/06/24 06:35:10;;;;;;;1.98;1.83;;;;;;;;;;5065185;28;20041;-77
2022/06/24 06:37:36;;;;;;;1.98;1.70;;;;;;;;;;5059600;28;20028;-80
2022/06/24 06:40:03;;;;;;;1.70;1.60;;;;;;;;;;5053785;28;20051;-78
2022/06/24 06:42:29;;;;;;;2.65;1.90;;;;;;;;;;5065384;28;20508;-78
2022/06/24 06:44:55;;;;;;;2.42;2.03;;;;;;;;;;5055557;28;20089;-78
2022/06/24 06:47:21;;;;;;;3.03;1.90;;;;;;;;;;5061917;28;20326;-79
2022/06/24 06:49:47;;;;;;;2.35;1.80;;;;;;;;;;5060728;28;20021;-77
2022/06/24 06:52:13;;;;;;;2.90;1.60;;;;;;;;;;5057937;28;20059;-76
2022/06/24 06:54:40;;;;;;;2.92;1.80;;;;;;;;;;5053664;28;20492;-78
2022/06/24 06:57:06;;;;;;;2.30;1.80;;;;;;;;;;5052287;28;20025;-78
2022/06/24 06:59:33;;;;;;;1.70;1.60;;;;;;;;;;5062949;28;20028;-78
2022/06/24 07:01:59;;;;;;;3.05;1.60;;;;;;;;;;5055532;28;20029;-78
2022/06/24 07:04:25;;;;;;;1.63;1.52;;;;;;;;;;5050288;28;20128;-78
2022/06/24 07:06:53;;;;;;;1.60;1.50;;;;;;;;;;5054468;28;20232;-78
2022/06/24 07:09:19;;;;;;;1.95;1.65;;;;;;;;;;5058589;28;20491;-78
2022/06/24 07:11:45;;;;;;;1.63;1.52;;;;;;;;;;5065258;28;20032;-78
2022/06/24 07:14:11;;;;;;;1.80;1.50;;;;;;;;;;5057977;28;20107;-78
2022/06/24 07:16:37;;;;;;;1.20;1.20;;;;;;;;;;5069671;28;20399;-78
2022/06/24 07:19:03;;;;;;;1.42;1.33;;;;;;;;;;5069652;28;20048;-78
2022/06/24 07:21:30;;;;;;;1.80;1.50;;;;;;;;;;5057264;28;20012;-78
2022/06/24 07:23:56;;;;;;;1.50;1.40;;;;;;;;;;5061375;28;20051;-79
2022/06/24 07:26:22;;;;;;;1.38;1.27;;;;;;;;;;5067099;28;20154;-78
2022/06/24 07:28:48;;;;;;;1.40;1.30;;;;;;;;;;5062362;28;20029;-78
2022/06/24 07:31:15;;;;;;;1.30;1.20;;;;;;;;;;5065915;28;20021;-78
2022/06/24 07:33:41;;;;;;;1.33;1.27;;;;;;;;;;5060458;28;20036;-78
2022/06/24 07:36:07;;;;;;;1.17;1.17;;;;;;;;;;5068049;28;20144;-79
2022/06/24 07:38:33;;;;;;;1.10;1.10;;;;;;;;;;5061670;28;20017;-79
2022/06/24 07:40:59;;;;;;;1.30;1.20;;;;;;;;;;5063128;28;20036;-76
2022/06/24 07:43:26;;;;;;;1.30;1.30;;;;;;;;;;5060453;28;20497;-76
2022/06/24 07:45:52;;;;;;;1.15;1.15;;;;;;;;;;5067890;28;20540;-76
2022/06/24 07:48:18;;;;;;;1.02;1.02;;;;;;;;;;5062756;28;20021;-78
2022/06/24 07:50:44;;;;;;;1.60;1.20;;;;;;;;;;5058650;28;20035;-76
2022/06/24 07:53:11;;;;;;;1.10;1.10;;;;;;;;;;5054757;28;20025;-76
2022/06/24 07:58:22;;;;;;;2.05;1.10;;;;;;;;;;5057672;28;20120;-77
2022/06/24 08:00:48;;;;;;;1.83;1.10;;;;;;;;;;5059212;28;20596;-77
2022/06/24 08:03:14;;;;;;;1.30;1.20;;;;;;;;;;5065845;28;20047;-76
2022/06/24 08:05:41;;;;;;;1.40;1.20;;;;;;;;;;5063395;28;20028;-77
2022/06/24 08:08:07;;;;;;;1.38;1.20;;;;;;;;;;5057626;28;20017;-77
2022/06/24 08:10:33;;;;;;;1.40;1.30;;;;;;;;;;5060628;28;20454;-77
2022/06/24 08:12:59;;;;;;;1.13;1.02;;;;;;;;;;5055628;28;20028;-76
2022/06/24 08:15:26;;;;;;;2.30;1.08;;;;;;;;;;5059205;28;20033;-79
2022/06/24 08:17:52;;;;;;;1.20;1.10;;;;;;;;;;5063104;28;20051;-78
2022/06/24 08:20:18;;;;;;;1.92;1.10;;;;;;;;;;5054803;28;20031;-78
2022/06/24 08:22:44;;;;;;;1.02;1.02;;;;;;;;;;5059406;28;20124;-78
2022/06/24 08:25:10;;;;;;;1.30;1.20;;;;;;;;;;5064566;28;20025;-79
2022/06/24 08:27:36;;;;;;;1.70;1.40;;;;;;;;;;5062869;28;20506;-78
2022/06/24 08:30:03;;;;;;;1.08;1.05;;;;;;;;;;5067603;28;20062;-78
2022/06/24 08:32:29;;;;;;;1.02;1.00;;;;;;;;;;5058099;28;20029;-78
2022/06/24 08:34:55;;;;;;;1.15;1.00;;;;;;;;;;5059337;28;20407;-79
2022/06/24 08:37:22;;;;;;;0.90;0.90;;;;;;;;;;5059547;28;20040;-77
2022/06/24 08:39:48;;;;;;;4.43;1.10;;;;;;;;;;5058303;28;20036;-78
2022/06/24 08:42:14;;;;;;;0.90;0.90;;;;;;;;;;5061432;28;20502;-79
2022/06/24 08:44:41;;;;;;;1.90;0.90;;;;;;;;;;5059116;28;20334;-79
2022/06/24 08:47:07;;;;;;;1.75;1.20;;;;;;;;;;5064921;28;20531;-78
2022/06/24 08:49:34;;;;;;;2.17;1.05;;;;;;;;;;5056623;28;20039;-76
2022/06/24 08:52:01;;;;;;;1.00;1.00;;;;;;;;;;5064949;28;20368;-77
2022/06/24 08:54:30;;;;;;;2.05;0.90;;;;;;;;;;5054598;28;20478;-77
2022/06/24 08:56:57;;;;;;;2.17;1.70;;;;;;;;;;5062606;28;20028;-77
2022/06/24 08:59:23;;;;;;;3.65;1.10;;;;;;;;;;5053349;28;20360;-76
2022/06/24 09:01:50;;;;;;;1.55;1.40;;;;;;;;;;5065095;28;20017;-76
2022/06/24 09:04:16;;;;;;;1.20;1.00;;;;;;;;;;5060794;28;20020;-75
2022/06/24 09:06:42;;;;;;;1.27;1.13;;;;;;;;;;5064393;28;20028;-76
2022/06/24 09:09:08;;;;;;;1.25;1.15;;;;;;;;;;5064059;28;20032;-76
2022/06/24 09:11:40;;;;;;;3.30;0.95;;;;;;;;;;5054128;28;20044;-76
2022/06/24 09:14:07;;;;;;;1.30;1.20;;;;;;;;;;5058253;28;20107;-77
2022/06/24 09:16:36;;;;;;;0.90;0.90;;;;;;;;;;5057707;28;20021;-77
2022/06/24 09:19:04;;;;;;;0.90;0.90;;;;;;;;;;5056072;28;20024;-77
2022/06/24 09:21:34;;;;;;;0.93;0.90;;;;;;;;;;5052835;28;20143;-76
2022/06/24 09:24:02;;;;;;;1.33;1.33;;;;;;;;;;5059577;28;20063;-76
2022/06/24 09:26:37;;;;;;;0.90;0.90;;;;;;;;;;5051074;28;20068;-76
2022/06/24 09:29:05;;;;;;;0.80;0.80;;;;;;;;;;5052128;28;20138;-77
2022/06/24 09:31:31;;;;;;;0.80;0.80;;;;;;;;;;5053068;28;20029;-78
2022/06/24 09:34:06;;;;;;;2.53;1.13;;;;;;;;;;5051138;28;20478;-77
2022/06/24 09:36:33;;;;;;;0.90;0.90;;;;;;;;;;5067723;28;20036;-78
2022/06/24 09:39:02;;;;;;;0.60;0.60;;;;;;;;;;5078311;28;20035;-78
2022/06/24 09:41:28;;;;;;;0.70;0.70;;;;;;;;;;5059313;28;20082;-78
2022/06/24 09:43:57;;;;;;;0.80;0.80;;;;;;;;;;5056509;28;20363;-78
2022/06/24 09:46:24;;;;;;;3.63;1.10;;;;;;;;;;5057091;28;20032;-77
2022/06/24 09:48:51;;;;;;;1.25;0.80;;;;;;;;;;5054195;28;20025;-79
2022/06/24 09:51:17;;;;;;;1.08;0.85;;;;;;;;;;5064650;28;20023;-77
2022/06/24 09:53:45;;;;;;;1.00;1.00;;;;;;;;;;5052925;28;20059;-78
2022/06/24 09:56:13;;;;;;;1.42;1.20;;;;;;;;;;5061073;28;20121;-78
2022/06/24 09:58:40;;;;;;;1.20;1.10;;;;;;;;;;5056756;28;20025;-78
2022/06/24 10:01:07;;;;;;;0.80;0.80;;;;;;;;;;5060634;28;20560;-78
2022/06/24 10:03:34;;;;;;;1.02;1.02;;;;;;;;;;5062369;28;20033;-78
2022/06/24 10:06:02;;;;;;;1.33;1.25;;;;;;;;;;5054508;28;20020;-78
2022/06/24 10:08:31;;;;;;;1.25;1.15;;;;;;;;;;5063166;28;20036;-78
2022/06/24 10:11:00;;;;;;;1.50;1.40;;;;;;;;;;5054801;28;20078;-77
2022/06/24 10:13:28;;;;;;;1.85;1.20;;;;;;;;;;5058807;28;20067;-77
2022/06/24 10:15:55;;;;;;;1.27;1.10;;;;;;;;;;5055538;28;20044;-77
2022/06/24 10:18:23;;;;;;;1.77;1.17;;;;;;;;;;5058014;28;20108;-77
2022/06/24 10:20:50;;;;;;;2.03;1.52;;;;;;;;;;5051312;28;20078;-77
2022/06/24 10:23:35;;;;;;;1.40;1.30;;;;;;;;;;5050638;28;20141;-78
2022/06/24 10:26:08;;;;;;;1.00;1.00;;;;;;;;;;5050231;28;20530;-78
2022/06/24 10:28:54;;;;;;;1.15;1.13;;;;;;;;;;5068786;28;20039;-78
2022/06/24 10:31:20;;;;;;;1.33;1.20;;;;;;;;;;5056898;28;20031;-77
2022/06/24 10:33:47;;;;;;;2.15;1.73;;;;;;;;;;5059510;28;20035;-77
2022/06/24 10:36:13;;;;;;;1.30;1.20;;;;;;;;;;5067097;28;20056;-77
2022/06/24 10:38:40;;;;;;;2.28;1.30;;;;;;;;;;5060057;28;20025;-77
2022/06/24 10:41:08;;;;;;;2.95;1.63;;;;;;;;;;5062205;28;20024;-77
2022/06/24 10:43:34;;;;;;;3.42;2.25;;;;;;;;;;5060664;28;20204;-78
2022/06/24 10:46:27;;;;;;;3.95;1.63;;;;;;;;;;5068889;28;20428;-77
2022/06/24 10:48:53;;;;;;;1.60;1.50;;;;;;;;;;5059353;28;20041;-78
2022/06/24 10:51:21;;;;;;;1.83;1.73;;;;;;;;;;5059223;28;20543;-75
2022/06/24 10:54:02;;;;;;;1.77;1.60;;;;;;;;;;5056697;28;20021;-77
2022/06/24 10:56:44;;;;;;;1.75;1.65;;;;;;;;;;5061981;28;20028;-77
2022/06/24 10:59:15;;;;;;;3.15;1.85;;;;;;;;;;5057665;28;20037;-78
2022/06/24 11:01:42;;;;;;;3.05;1.90;;;;;;;;;;5054197;28;20056;-78
2022/06/24 11:04:09;;;;;;;3.33;1.85;;;;;;;;;;5054758;28;20434;-77
2022/06/24 11:06:35;;;;;;;7.68;2.92;;;;;;;;;;5056095;28;20052;-78
2022/06/24 11:09:08;;;;;;;4.43;2.00;;;;;;;;;;5058694;28;20021;-78
2022/06/24 11:11:35;;;;;;;2.67;2.13;;;;;;;;;;5062661;28;20371;-79
2022/06/24 11:14:21;;;;;;;3.88;2.05;;;;;;;;;;5059014;28;20363;-78
2022/06/24 11:16:47;;;;;;;4.32;2.58;;;;;;;;;;5064968;28;20433;-77
2022/06/24 11:19:13;;;;;;;4.13;2.08;;;;;;;;;;5068479;28;20025;-78
2022/06/24 11:21:51;;;;;;;3.22;2.13;;;;;;;;;;5056263;28;20047;-78
2022/06/24 11:24:21;;;;;;;2.92;2.42;;;;;;;;;;5054110;28;20037;-78
2022/06/24 11:27:03;;;;;;;5.88;2.40;;;;;;;;;;5063507;28;20490;-78
2022/06/24 11:29:48;;;;;;;3.80;2.05;;;;;;;;;;5053889;28;20028;-77
2022/06/24 11:32:14;;;;;;;3.30;2.10;;;;;;;;;;5055685;28;20398;-77
2022/06/24 11:34:43;;;;;;;3.00;2.00;;;;;;;;;;5067306;28;20095;-77
2022/06/24 11:37:09;;;;;;;2.92;2.20;;;;;;;;;;5062935;28;20490;-77
2022/06/24 11:39:36;;;;;;;3.28;2.53;;;;;;;;;;5072136;28;20039;-78
2022/06/24 11:42:02;;;;;;;5.25;2.63;;;;;;;;;;5057270;28;20021;-77
2022/06/24 11:44:35;;;;;;;3.53;2.03;;;;;;;;;;5061890;28;20040;-77
2022/06/24 11:47:01;;;;;;;4.13;2.30;;;;;;;;;;5068549;28;20517;-76
2022/06/24 11:49:29;;;;;;;3.78;2.42;;;;;;;;;;5063641;28;20105;-77
2022/06/24 11:51:55;;;;;;;6.85;2.30;;;;;;;;;;5053184;28;20037;-77
2022/06/24 11:54:26;;;;;;;3.40;2.60;;;;;;;;;;5056550;28;20016;-77
2022/06/24 11:56:52;;;;;;;3.50;2.30;;;;;;;;;;5054907;28;20025;-78
2022/06/24 11:59:20;;;;;;;2.55;2.13;;;;;;;;;;5067557;28;20021;-77
2022/06/24 12:01:46;;;;;;;3.88;2.30;;;;;;;;;;5062351;28;20025;-77
2022/06/24 12:04:13;;;;;;;6.47;2.42;;;;;;;;;;5058853;28;20532;-77
2022/06/24 12:06:40;;;;;;;5.88;2.88;;;;;;;;;;5061772;28;20070;-77
2022/06/24 12:09:07;;;;;;;3.55;2.22;;;;;;;;;;5063476;28;20089;-76
2022/06/24 12:11:39;;;;;;;3.10;2.58;;;;;;;;;;5053560;28;20029;-77
2022/06/24 12:14:07;;;;;;;4.47;2.25;;;;;;;;;;5063790;28;20383;-77
2022/06/24 12:16:51;;;;;;;3.15;2.20;;;;;;;;;;5053946;28;20487;-77
2022/06/24 12:19:17;;;;;;;2.47;2.13;;;;;;;;;;5076967;28;20046;-77
2022/06/24 12:21:44;;;;;;;4.40;2.10;;;;;;;;;;5073294;28;20040;-77
2022/06/24 12:24:23;;;;;;;2.70;2.10;;;;;;;;;;5054279;28;20495;-77
2022/06/24 12:26:53;;;;;;;5.63;2.20;;;;;;;;;;5056595;28;20032;-78
2022/06/24 12:29:27;;;;;;;4.07;2.15;;;;;;;;;;5056725;28;20509;-77
2022/06/24 12:31:54;;;;;;;4.65;2.20;;;;;;;;;;5066074;28;20377;-77
2022/06/24 12:34:34;;;;;;;2.38;1.90;;;;;;;;;;5061048;28;20025;-77
2022/06/24 12:37:02;;;;;;;2.45;2.00;;;;;;;;;;5060483;28;20479;-78
2022/06/24 12:39:30;;;;;;;2.30;1.90;;;;;;;;;;5065668;28;20059;-78
2022/06/24 12:41:56;;;;;;;2.05;1.85;;;;;;;;;;5062842;28;20017;-78
2022/06/24 12:44:23;;;;;;;2.25;2.05;;;;;;;;;;5052212;28;20055;-79
2022/06/24 12:52:32;;;;;;;1.98;1.70;;;;;;;;;;5070074;28;20196;-77
2022/06/24 12:54:58;;;;;;;3.08;2.00;;;;;;;;;;5064418;28;20021;-77
2022/06/24 12:57:24;;;;;;;3.22;2.00;;;;;;;;;;5062363;28;20024;-77
2022/06/24 12:59:50;;;;;;;5.25;2.00;;;;;;;;;;5065702;28;20020;-77
2022/06/24 13:02:16;;;;;;;2.50;2.17;;;;;;;;;;5054098;28;20115;-77
2022/06/24 13:04:42;;;;;;;3.08;2.10;;;;;;;;;;5059822;28;20025;-77
2022/06/24 13:07:08;;;;;;;3.60;2.58;;;;;;;;;;5066287;28;20052;-77
2022/06/24 13:09:34;;;;;;;4.60;1.98;;;;;;;;;;5054690;28;20051;-77
2022/06/24 13:12:00;;;;;;;2.20;2.00;;;;;;;;;;5057027;28;20048;-78
2022/06/24 13:14:27;;;;;;;2.65;1.80;;;;;;;;;;5063132;28;20024;-78
2022/06/24 13:16:53;;;;;;;2.13;1.80;;;;;;;;;;5056163;28;20117;-78
2022/06/24 13:19:19;;;;;;;3.25;1.75;;;;;;;;;;5071271;28;20028;-77
2022/06/24 13:21:45;;;;;;;3.10;1.83;;;;;;;;;;5061938;28;20032;-77
2022/06/24 13:24:11;;;;;;;5.03;2.58;;;;;;;;;;5061795;28;20106;-77
2022/06/24 13:26:37;;;;;;;2.22;1.80;;;;;;;;;;5058875;28;20107;-77
2022/06/24 13:29:03;;;;;;;3.70;2.38;;;;;;;;;;5066088;28;20028;-77
2022/06/24 13:31:29;;;;;;;4.05;1.98;;;;;;;;;;5082661;28;20021;-76
2022/06/24 13:33:55;;;;;;;8.25;2.42;;;;;;;;;;5060616;28;20104;-77
2022/06/24 13:36:22;;;;;;;5.57;2.42;;;;;;;;;;5062133;28;20040;-77
2022/06/24 13:38:49;;;;;;;5.75;2.10;;;;;;;;;;5070197;28;20021;-77
2022/06/24 13:41:15;;;;;;;3.65;2.00;;;;;;;;;;5060566;28;20055;-77
2022/06/24 13:43:42;;;;;;;3.17;2.42;;;;;;;;;;5057712;28;20031;-77
2022/06/24 13:46:08;;;;;;;3.40;1.95;;;;;;;;;;5065760;28;20036;-77
2022/06/24 13:48:35;;;;;;;3.33;2.15;;;;;;;;;;5054597;28;20025;-76
2022/06/24 13:51:01;;;;;;;2.88;2.53;;;;;;;;;;5052769;28;20048;-77
2022/06/24 13:53:27;;;;;;;4.13;2.20;;;;;;;;;;5051457;28;20024;-76
2022/06/24 13:55:53;;;;;;;3.50;2.22;;;;;;;;;;5059425;28;20054;-77
2022/06/24 13:58:19;;;;;;;5.82;2.97;;;;;;;;;;5053976;28;20426;-77
2022/06/24 14:00:45;;;;;;;3.50;2.20;;;;;;;;;;5061713;28;20035;-78
2022/06/24 14:03:11;;;;;;;3.15;2.10;;;;;;;;;;5066121;28;20081;-77
2022/06/24 14:05:38;;;;;;;3.90;2.40;;;;;;;;;;5056286;28;20068;-77
2022/06/24 14:08:04;;;;;;;2.72;1.95;;;;;;;;;;5056597;28;20017;-77
2022/06/24 14:10:30;;;;;;;2.80;1.90;;;;;;;;;;5060080;28;20016;-78
2022/06/24 14:12:57;;;;;;;2.97;1.75;;;;;;;;;;5055091;28;20074;-77
2022/06/24 14:15:23;;;;;;;2.90;2.55;;;;;;;;;;5057750;28;20041;-77
2022/06/24 14:17:49;;;;;;;3.55;2.00;;;;;;;;;;5064690;28;20107;-77
2022/06/24 14:20:16;;;;;;;4.68;2.15;;;;;;;;;;5065776;28;20159;-77
2022/06/24 14:25:27;;;;;;;3.77;1.97;;;;;;;;;;5055704;28;20411;-79
2022/06/24 14:27:53;;;;;;;4.03;1.65;;;;;;;;;;5064564;28;20024;-78
2022/06/24 14:30:20;;;;;;;2.00;1.70;;;;;;;;;;5068523;28;20021;-78
2022/06/24 14:32:46;;;;;;;3.03;1.83;;;;;;;;;;5060057;28;20021;-78
2022/06/24 14:35:12;;;;;;;1.75;1.58;;;;;;;;;;5067572;28;20310;-77
2022/06/24 14:40:24;;;;;;;2.28;2.03;;;;;;;;;;5065248;28;20498;-78
2022/06/24 14:42:51;;;;;;;1.40;1.30;;;;;;;;;;5056956;28;20048;-76
2022/06/24 14:45:17;;;;;;;1.65;1.50;;;;;;;;;;5065149;28;20059;-78
2022/06/24 14:47:44;;;;;;;1.88;1.50;;;;;;;;;;5062846;28;20016;-78
2022/06/24 14:50:10;;;;;;;4.18;1.63;;;;;;;;;;5062067;28;20024;-78
2022/06/24 14:52:36;;;;;;;3.10;1.90;;;;;;;;;;5068626;28;20155;-78
2022/06/24 14:55:04;;;;;;;2.05;1.70;;;;;;;;;;5067280;28;20013;-77
2022/06/24 14:57:30;;;;;;;6.53;2.00;;;;;;;;;;5060992;28;20048;-77
2022/06/24 14:59:56;;;;;;;3.15;1.80;;;;;;;;;;5064463;28;20031;-77
2022/06/24 15:02:22;;;;;;;1.85;1.33;;;;;;;;;;5076035;28;20474;-77
2022/06/24 15:04:48;;;;;;;1.50;1.40;;;;;;;;;;5064844;28;20029;-77